首页
METAR-TAF:

METAR-TAF

机场 :

Grande Prairie, 艾伯塔, 加拿大

纬度: 55-11N, 经度: 118-53W, 海拔: 666米

当前天气观测

该预报发布于58分钟前的13:00 UTC
风速4节,风向
温度 9°C
湿度 71%
气压 1018 hPa
能見度: 40.2公里
少量云层高于12000英尺
少量云层高于24000英尺

METAR: CYQU 221300Z 09004KT 25SM FEW120 FEW240 09/04 A3007 RMK AC1CI1 SLP194

时间: 07:58 (13:58 UTC)

预报

该预报发布于1小时和20分钟前的12:38 UTC
预报有效从22日的 13点(UTC)到 23日的 01点(UTC)
风速6节,风向东转东北
能見度: 10公里
少量云层高于12000英尺
散云层高于22000英尺
从 22日的 2000点(UTC)
风速10节,风向,有时为20节阵风
能見度: 10公里
散云层高于7000英尺
多云层高于14000英尺

TAF: CYQU 221238Z 2213/2301 06006KT P6SM FEW120 SCT220 FM222000 10010G20KT P6SM SCT070 BKN140 RMK NXT FCST BY 221900Z

超过4000个机场的气象观测和天气预报(METAR&TAF报告)。

可查询的气象台以黄色和红色小点在地图上表示。

将鼠标移到小点上方,可查看气象台名称。

然后点击查看天气观测和预报。

如需切换地图:点击带黑十字的绿色按钮放大地图;点击带横线的绿色按钮缩小地图;或者点击绿色箭头查看邻近地区的地图。


METAR-TAF: